sensor_id;sensor_type;location;lat;lon;timestamp;temperature;humidity
13462;DHT22;6803;45.264;5.468;2022-12-29T00:01:01;6.70;99.90
13462;DHT22;6803;45.264;5.468;2022-12-29T00:03:32;6.70;99.90
13462;DHT22;6803;45.264;5.468;2022-12-29T00:06:03;6.90;99.90
13462;DHT22;6803;45.264;5.468;2022-12-29T00:08:34;6.80;99.90
13462;DHT22;6803;45.264;5.468;2022-12-29T00:11:13;6.60;99.90
13462;DHT22;6803;45.264;5.468;2022-12-29T00:13:44;6.30;99.90
13462;DHT22;6803;45.264;5.468;2022-12-29T00:16:34;6.20;99.90
13462;DHT22;6803;45.264;5.468;2022-12-29T00:19:06;6.30;99.90
13462;DHT22;6803;45.264;5.468;2022-12-29T00:21:39;6.30;99.90
13462;DHT22;6803;45.264;5.468;2022-12-29T00:24:27;6.30;99.90
13462;DHT22;6803;45.264;5.468;2022-12-29T00:27:16;6.10;99.90
13462;DHT22;6803;45.264;5.468;2022-12-29T00:30:09;6.20;99.90
13462;DHT22;6803;45.264;5.468;2022-12-29T00:32:58;6.20;99.90
13462;DHT22;6803;45.264;5.468;2022-12-29T00:35:50;6.30;99.90
13462;DHT22;6803;45.264;5.468;2022-12-29T00:38:19;6.10;99.90
13462;DHT22;6803;45.264;5.468;2022-12-29T00:41:09;6.00;99.90
13462;DHT22;6803;45.264;5.468;2022-12-29T00:43:57;5.90;99.90
13462;DHT22;6803;45.264;5.468;2022-12-29T00:46:39;5.80;99.90
13462;DHT22;6803;45.264;5.468;2022-12-29T00:49:12;5.80;99.90
13462;DHT22;6803;45.264;5.468;2022-12-29T00:52:04;5.70;99.90
13462;DHT22;6803;45.264;5.468;2022-12-29T00:54:36;5.70;99.90
13462;DHT22;6803;45.264;5.468;2022-12-29T00:57:09;5.50;99.90
13462;DHT22;6803;45.264;5.468;2022-12-29T00:59:42;5.50;99.90
13462;DHT22;6803;45.264;5.468;2022-12-29T01:02:14;5.50;99.90
13462;DHT22;6803;45.264;5.468;2022-12-29T01:04:46;5.60;99.90
13462;DHT22;6803;45.264;5.468;2022-12-29T01:07:16;5.80;99.90
13462;DHT22;6803;45.264;5.468;2022-12-29T01:09:47;5.70;99.90
13462;DHT22;6803;45.264;5.468;2022-12-29T01:12:35;5.70;99.90
13462;DHT22;6803;45.264;5.468;2022-12-29T01:15:15;5.60;99.90
13462;DHT22;6803;45.264;5.468;2022-12-29T01:17:46;6.00;99.90
13462;DHT22;6803;45.264;5.468;2022-12-29T01:20:17;6.20;99.90
13462;DHT22;6803;45.264;5.468;2022-12-29T01:22:48;6.00;99.90
13462;DHT22;6803;45.264;5.468;2022-12-29T01:25:19;6.00;99.90
13462;DHT22;6803;45.264;5.468;2022-12-29T01:27:50;6.00;99.90
13462;DHT22;6803;45.264;5.468;2022-12-29T01:30:20;6.00;99.90
13462;DHT22;6803;45.264;5.468;2022-12-29T01:32:51;6.10;99.90
13462;DHT22;6803;45.264;5.468;2022-12-29T01:35:22;6.10;99.90
13462;DHT22;6803;45.264;5.468;2022-12-29T01:37:52;6.20;99.90
13462;DHT22;6803;45.264;5.468;2022-12-29T01:40:23;6.10;99.90
13462;DHT22;6803;45.264;5.468;2022-12-29T01:42:54;5.80;99.90
13462;DHT22;6803;45.264;5.468;2022-12-29T01:45:25;5.70;99.90
13462;DHT22;6803;45.264;5.468;2022-12-29T01:47:57;5.70;99.90
13462;DHT22;6803;45.264;5.468;2022-12-29T01:50:31;5.90;99.90
13462;DHT22;6803;45.264;5.468;2022-12-29T01:53:04;5.90;99.90
13462;DHT22;6803;45.264;5.468;2022-12-29T01:55:38;5.90;99.90
13462;DHT22;6803;45.264;5.468;2022-12-29T01:58:11;5.90;99.90
13462;DHT22;6803;45.264;5.468;2022-12-29T02:00:43;5.90;99.90
13462;DHT22;6803;45.264;5.468;2022-12-29T02:03:14;6.10;99.90
13462;DHT22;6803;45.264;5.468;2022-12-29T02:05:48;6.20;99.90
13462;DHT22;6803;45.264;5.468;2022-12-29T02:08:21;6.20;99.90
13462;DHT22;6803;45.264;5.468;2022-12-29T02:10:53;6.00;99.90
13462;DHT22;6803;45.264;5.468;2022-12-29T02:13:29;5.90;99.90
13462;DHT22;6803;45.264;5.468;2022-12-29T02:16:01;5.90;99.90
13462;DHT22;6803;45.264;5.468;2022-12-29T02:18:37;5.90;99.90
13462;DHT22;6803;45.264;5.468;2022-12-29T02:27:51;5.90;99.90
13462;DHT22;6803;45.264;5.468;2022-12-29T02:33:41;5.90;99.90
13462;DHT22;6803;45.264;5.468;2022-12-29T02:36:16;6.10;99.90
13462;DHT22;6803;45.264;5.468;2022-12-29T02:38:55;6.10;99.90
13462;DHT22;6803;45.264;5.468;2022-12-29T02:41:28;6.10;99.90
13462;DHT22;6803;45.264;5.468;2022-12-29T02:44:03;6.20;99.90
13462;DHT22;6803;45.264;5.468;2022-12-29T02:46:37;6.10;99.90
13462;DHT22;6803;45.264;5.468;2022-12-29T02:49:12;6.10;99.90
13462;DHT22;6803;45.264;5.468;2022-12-29T02:51:48;6.10;99.90
13462;DHT22;6803;45.264;5.468;2022-12-29T02:54:20;6.10;99.90
13462;DHT22;6803;45.264;5.468;2022-12-29T02:57:12;6.00;99.90
13462;DHT22;6803;45.264;5.468;2022-12-29T02:59:46;5.90;99.90
13462;DHT22;6803;45.264;5.468;2022-12-29T03:05:34;5.80;99.90
13462;DHT22;6803;45.264;5.468;2022-12-29T03:08:09;5.90;99.90
13462;DHT22;6803;45.264;5.468;2022-12-29T03:10:44;5.90;99.90
13462;DHT22;6803;45.264;5.468;2022-12-29T03:13:19;5.80;99.90
13462;DHT22;6803;45.264;5.468;2022-12-29T03:16:10;5.80;99.90
13462;DHT22;6803;45.264;5.468;2022-12-29T03:18:45;5.90;99.90
13462;DHT22;6803;45.264;5.468;2022-12-29T03:21:19;5.70;99.90
13462;DHT22;6803;45.264;5.468;2022-12-29T03:23:50;5.60;99.90
13462;DHT22;6803;45.264;5.468;2022-12-29T03:26:22;5.70;99.90
13462;DHT22;6803;45.264;5.468;2022-12-29T03:28:54;5.90;99.90
13462;DHT22;6803;45.264;5.468;2022-12-29T03:31:27;6.10;99.90
13462;DHT22;6803;45.264;5.468;2022-12-29T03:33:59;6.10;99.90
13462;DHT22;6803;45.264;5.468;2022-12-29T03:36:32;5.90;99.90
13462;DHT22;6803;45.264;5.468;2022-12-29T03:39:06;5.90;99.90
13462;DHT22;6803;45.264;5.468;2022-12-29T03:41:38;5.90;99.90
13462;DHT22;6803;45.264;5.468;2022-12-29T03:44:11;5.90;99.90
13462;DHT22;6803;45.264;5.468;2022-12-29T03:46:42;5.70;99.90
13462;DHT22;6803;45.264;5.468;2022-12-29T03:49:13;5.90;99.90
13462;DHT22;6803;45.264;5.468;2022-12-29T03:51:45;5.90;99.90
13462;DHT22;6803;45.264;5.468;2022-12-29T03:54:17;5.90;99.90
13462;DHT22;6803;45.264;5.468;2022-12-29T03:56:48;5.80;99.90
13462;DHT22;6803;45.264;5.468;2022-12-29T03:59:19;5.80;99.90
13462;DHT22;6803;45.264;5.468;2022-12-29T04:01:50;5.80;99.90
13462;DHT22;6803;45.264;5.468;2022-12-29T04:04:20;5.80;99.90
13462;DHT22;6803;45.264;5.468;2022-12-29T04:06:51;5.90;99.90
13462;DHT22;6803;45.264;5.468;2022-12-29T04:09:22;5.90;99.90
13462;DHT22;6803;45.264;5.468;2022-12-29T04:11:52;5.90;99.90
13462;DHT22;6803;45.264;5.468;2022-12-29T04:14:23;5.90;99.90
13462;DHT22;6803;45.264;5.468;2022-12-29T04:16:54;5.90;99.90
13462;DHT22;6803;45.264;5.468;2022-12-29T04:19:24;5.80;99.90
13462;DHT22;6803;45.264;5.468;2022-12-29T04:21:55;5.80;99.90
13462;DHT22;6803;45.264;5.468;2022-12-29T04:24:26;5.80;99.90
13462;DHT22;6803;45.264;5.468;2022-12-29T04:26:56;5.80;99.90
13462;DHT22;6803;45.264;5.468;2022-12-29T04:29:27;5.80;99.90
13462;DHT22;6803;45.264;5.468;2022-12-29T04:31:58;5.80;99.90
13462;DHT22;6803;45.264;5.468;2022-12-29T04:34:28;5.80;99.90
13462;DHT22;6803;45.264;5.468;2022-12-29T04:36:59;5.80;99.90
13462;DHT22;6803;45.264;5.468;2022-12-29T04:39:30;5.80;99.90
13462;DHT22;6803;45.264;5.468;2022-12-29T04:42:02;5.70;99.90
13462;DHT22;6803;45.264;5.468;2022-12-29T04:44:32;5.70;99.90
13462;DHT22;6803;45.264;5.468;2022-12-29T04:47:05;5.70;99.90
13462;DHT22;6803;45.264;5.468;2022-12-29T04:49:35;5.80;99.90
13462;DHT22;6803;45.264;5.468;2022-12-29T04:52:06;5.90;99.90
13462;DHT22;6803;45.264;5.468;2022-12-29T04:54:37;5.90;99.90
13462;DHT22;6803;45.264;5.468;2022-12-29T04:57:08;5.90;99.90
13462;DHT22;6803;45.264;5.468;2022-12-29T04:59:39;5.70;99.90
13462;DHT22;6803;45.264;5.468;2022-12-29T05:02:10;5.80;99.90
13462;DHT22;6803;45.264;5.468;2022-12-29T05:04:42;5.80;99.90
13462;DHT22;6803;45.264;5.468;2022-12-29T05:07:13;5.80;99.90
13462;DHT22;6803;45.264;5.468;2022-12-29T05:09:43;5.70;99.90
13462;DHT22;6803;45.264;5.468;2022-12-29T05:12:14;5.80;99.90
13462;DHT22;6803;45.264;5.468;2022-12-29T05:14:46;6.00;99.90
13462;DHT22;6803;45.264;5.468;2022-12-29T05:17:16;6.10;99.90
13462;DHT22;6803;45.264;5.468;2022-12-29T05:19:47;6.10;99.90
13462;DHT22;6803;45.264;5.468;2022-12-29T05:22:18;6.00;99.90
13462;DHT22;6803;45.264;5.468;2022-12-29T05:24:49;6.00;99.90
13462;DHT22;6803;45.264;5.468;2022-12-29T05:27:19;6.00;99.90
13462;DHT22;6803;45.264;5.468;2022-12-29T05:29:50;6.00;99.90
13462;DHT22;6803;45.264;5.468;2022-12-29T05:32:21;6.00;99.90
13462;DHT22;6803;45.264;5.468;2022-12-29T05:34:51;6.10;99.90
13462;DHT22;6803;45.264;5.468;2022-12-29T05:37:22;6.10;99.90
13462;DHT22;6803;45.264;5.468;2022-12-29T05:39:53;6.10;99.90
13462;DHT22;6803;45.264;5.468;2022-12-29T05:42:23;6.20;99.90
13462;DHT22;6803;45.264;5.468;2022-12-29T05:44:54;6.30;99.90
13462;DHT22;6803;45.264;5.468;2022-12-29T05:47:25;6.20;99.90
13462;DHT22;6803;45.264;5.468;2022-12-29T05:49:55;6.10;99.90
13462;DHT22;6803;45.264;5.468;2022-12-29T05:52:26;6.00;99.90
13462;DHT22;6803;45.264;5.468;2022-12-29T05:54:57;6.00;99.90
13462;DHT22;6803;45.264;5.468;2022-12-29T05:57:27;5.90;99.90
13462;DHT22;6803;45.264;5.468;2022-12-29T05:59:58;5.90;99.90
13462;DHT22;6803;45.264;5.468;2022-12-29T06:02:29;5.70;99.90
13462;DHT22;6803;45.264;5.468;2022-12-29T06:05:00;5.70;99.90
13462;DHT22;6803;45.264;5.468;2022-12-29T06:07:30;5.60;99.90
13462;DHT22;6803;45.264;5.468;2022-12-29T06:10:01;5.60;99.90
13462;DHT22;6803;45.264;5.468;2022-12-29T06:12:32;5.60;99.90
13462;DHT22;6803;45.264;5.468;2022-12-29T06:15:03;5.60;99.90
13462;DHT22;6803;45.264;5.468;2022-12-29T06:17:35;5.60;99.90
13462;DHT22;6803;45.264;5.468;2022-12-29T06:20:08;5.60;99.90
13462;DHT22;6803;45.264;5.468;2022-12-29T06:22:39;5.60;99.90
13462;DHT22;6803;45.264;5.468;2022-12-29T06:25:10;5.50;99.90
13462;DHT22;6803;45.264;5.468;2022-12-29T06:27:42;5.50;99.90
13462;DHT22;6803;45.264;5.468;2022-12-29T06:30:14;5.40;99.90
13462;DHT22;6803;45.264;5.468;2022-12-29T06:32:46;5.50;99.90
13462;DHT22;6803;45.264;5.468;2022-12-29T06:35:17;5.30;99.90
13462;DHT22;6803;45.264;5.468;2022-12-29T06:37:48;5.40;99.90
13462;DHT22;6803;45.264;5.468;2022-12-29T06:40:18;5.50;99.90
13462;DHT22;6803;45.264;5.468;2022-12-29T06:42:50;5.50;99.90
13462;DHT22;6803;45.264;5.468;2022-12-29T06:45:21;5.60;99.90
13462;DHT22;6803;45.264;5.468;2022-12-29T06:47:52;5.40;99.90
13462;DHT22;6803;45.264;5.468;2022-12-29T06:50:24;5.30;99.90
13462;DHT22;6803;45.264;5.468;2022-12-29T06:52:54;5.30;99.90
13462;DHT22;6803;45.264;5.468;2022-12-29T06:55:25;5.20;99.90
13462;DHT22;6803;45.264;5.468;2022-12-29T06:57:57;5.20;99.90
13462;DHT22;6803;45.264;5.468;2022-12-29T07:00:30;5.20;99.90
13462;DHT22;6803;45.264;5.468;2022-12-29T07:03:01;5.20;99.90
13462;DHT22;6803;45.264;5.468;2022-12-29T07:05:32;5.40;99.90
13462;DHT22;6803;45.264;5.468;2022-12-29T07:08:03;5.50;99.90
13462;DHT22;6803;45.264;5.468;2022-12-29T07:10:34;5.70;99.90
13462;DHT22;6803;45.264;5.468;2022-12-29T07:13:04;5.60;99.90
13462;DHT22;6803;45.264;5.468;2022-12-29T07:15:38;5.60;99.90
13462;DHT22;6803;45.264;5.468;2022-12-29T07:18:08;5.70;99.90
13462;DHT22;6803;45.264;5.468;2022-12-29T07:20:39;5.80;99.90
13462;DHT22;6803;45.264;5.468;2022-12-29T07:23:10;5.80;99.90
13462;DHT22;6803;45.264;5.468;2022-12-29T07:25:40;5.80;99.90
13462;DHT22;6803;45.264;5.468;2022-12-29T07:28:12;5.80;99.90
13462;DHT22;6803;45.264;5.468;2022-12-29T07:30:44;5.70;99.90
13462;DHT22;6803;45.264;5.468;2022-12-29T07:33:16;5.50;99.90
13462;DHT22;6803;45.264;5.468;2022-12-29T07:35:46;5.60;99.90
13462;DHT22;6803;45.264;5.468;2022-12-29T07:38:17;5.60;99.90
13462;DHT22;6803;45.264;5.468;2022-12-29T07:40:48;5.60;99.90
13462;DHT22;6803;45.264;5.468;2022-12-29T07:43:19;5.70;99.90
13462;DHT22;6803;45.264;5.468;2022-12-29T07:45:49;5.70;99.90
13462;DHT22;6803;45.264;5.468;2022-12-29T07:48:20;5.70;99.90
13462;DHT22;6803;45.264;5.468;2022-12-29T07:50:53;5.70;99.90
13462;DHT22;6803;45.264;5.468;2022-12-29T07:53:24;5.70;99.90
13462;DHT22;6803;45.264;5.468;2022-12-29T07:55:54;5.70;99.90
13462;DHT22;6803;45.264;5.468;2022-12-29T07:58:26;5.70;99.90
13462;DHT22;6803;45.264;5.468;2022-12-29T08:00:57;5.70;99.90
13462;DHT22;6803;45.264;5.468;2022-12-29T08:03:27;5.70;99.90
13462;DHT22;6803;45.264;5.468;2022-12-29T08:05:58;5.70;99.90
13462;DHT22;6803;45.264;5.468;2022-12-29T08:08:29;5.70;99.90
13462;DHT22;6803;45.264;5.468;2022-12-29T08:11:01;5.60;99.90
13462;DHT22;6803;45.264;5.468;2022-12-29T08:13:32;5.60;99.90
13462;DHT22;6803;45.264;5.468;2022-12-29T08:16:03;5.60;99.90
13462;DHT22;6803;45.264;5.468;2022-12-29T08:18:34;5.70;99.90
13462;DHT22;6803;45.264;5.468;2022-12-29T08:23:45;5.70;99.90
13462;DHT22;6803;45.264;5.468;2022-12-29T08:26:17;5.70;99.90
13462;DHT22;6803;45.264;5.468;2022-12-29T08:28:48;5.70;99.90
13462;DHT22;6803;45.264;5.468;2022-12-29T08:31:18;5.80;99.90
13462;DHT22;6803;45.264;5.468;2022-12-29T08:33:49;5.80;99.90
13462;DHT22;6803;45.264;5.468;2022-12-29T08:36:20;5.90;99.90
13462;DHT22;6803;45.264;5.468;2022-12-29T08:38:51;6.00;99.90
13462;DHT22;6803;45.264;5.468;2022-12-29T08:41:22;6.00;99.90
13462;DHT22;6803;45.264;5.468;2022-12-29T08:43:52;6.00;99.90
13462;DHT22;6803;45.264;5.468;2022-12-29T08:46:23;6.00;99.90
13462;DHT22;6803;45.264;5.468;2022-12-29T08:48:55;6.00;99.90
13462;DHT22;6803;45.264;5.468;2022-12-29T08:51:25;6.20;99.90
13462;DHT22;6803;45.264;5.468;2022-12-29T08:53:56;6.40;99.90
13462;DHT22;6803;45.264;5.468;2022-12-29T08:56:27;6.40;99.90
13462;DHT22;6803;45.264;5.468;2022-12-29T08:58:58;6.40;99.90
13462;DHT22;6803;45.264;5.468;2022-12-29T09:01:29;6.50;99.90
13462;DHT22;6803;45.264;5.468;2022-12-29T09:04:00;6.60;99.90
13462;DHT22;6803;45.264;5.468;2022-12-29T09:06:32;6.70;99.90
13462;DHT22;6803;45.264;5.468;2022-12-29T09:09:05;6.70;99.90
13462;DHT22;6803;45.264;5.468;2022-12-29T09:11:35;6.80;99.90
13462;DHT22;6803;45.264;5.468;2022-12-29T09:14:06;6.90;99.90
13462;DHT22;6803;45.264;5.468;2022-12-29T09:16:37;7.00;99.90
13462;DHT22;6803;45.264;5.468;2022-12-29T09:19:09;7.30;99.90
13462;DHT22;6803;45.264;5.468;2022-12-29T09:21:39;7.50;99.90
13462;DHT22;6803;45.264;5.468;2022-12-29T09:24:10;7.80;99.90
13462;DHT22;6803;45.264;5.468;2022-12-29T09:26:41;8.00;99.90
13462;DHT22;6803;45.264;5.468;2022-12-29T09:29:13;8.20;99.90
13462;DHT22;6803;45.264;5.468;2022-12-29T09:31:44;8.30;99.90
13462;DHT22;6803;45.264;5.468;2022-12-29T09:34:15;8.50;99.90
13462;DHT22;6803;45.264;5.468;2022-12-29T09:36:45;8.50;99.90
13462;DHT22;6803;45.264;5.468;2022-12-29T09:39:16;8.40;99.90
13462;DHT22;6803;45.264;5.468;2022-12-29T09:41:52;8.50;99.90
13462;DHT22;6803;45.264;5.468;2022-12-29T09:44:26;8.40;99.90
13462;DHT22;6803;45.264;5.468;2022-12-29T09:46:58;8.30;99.90
13462;DHT22;6803;45.264;5.468;2022-12-29T09:49:32;8.30;99.90
13462;DHT22;6803;45.264;5.468;2022-12-29T09:54:48;8.40;99.90
13462;DHT22;6803;45.264;5.468;2022-12-29T09:57:24;8.60;99.90
13462;DHT22;6803;45.264;5.468;2022-12-29T09:59:59;8.80;99.90
13462;DHT22;6803;45.264;5.468;2022-12-29T10:02:38;9.00;99.90
13462;DHT22;6803;45.264;5.468;2022-12-29T10:05:22;9.00;99.90
13462;DHT22;6803;45.264;5.468;2022-12-29T10:07:57;8.90;99.90
13462;DHT22;6803;45.264;5.468;2022-12-29T10:13:26;9.20;99.90
13462;DHT22;6803;45.264;5.468;2022-12-29T10:16:03;9.40;99.90
13462;DHT22;6803;45.264;5.468;2022-12-29T10:18:43;9.60;99.90
13462;DHT22;6803;45.264;5.468;2022-12-29T10:21:20;9.90;99.90
13462;DHT22;6803;45.264;5.468;2022-12-29T10:23:52;10.10;99.90
13462;DHT22;6803;45.264;5.468;2022-12-29T10:26:26;10.30;99.90
13462;DHT22;6803;45.264;5.468;2022-12-29T10:28:59;10.40;99.90
13462;DHT22;6803;45.264;5.468;2022-12-29T10:31:33;10.60;99.90
13462;DHT22;6803;45.264;5.468;2022-12-29T10:34:10;10.70;99.90
13462;DHT22;6803;45.264;5.468;2022-12-29T10:36:41;11.10;99.90
13462;DHT22;6803;45.264;5.468;2022-12-29T10:39:19;11.20;99.90
13462;DHT22;6803;45.264;5.468;2022-12-29T10:44:31;10.70;99.90
13462;DHT22;6803;45.264;5.468;2022-12-29T10:52:28;10.80;99.90
13462;DHT22;6803;45.264;5.468;2022-12-29T10:55:00;10.90;99.90
13462;DHT22;6803;45.264;5.468;2022-12-29T10:57:35;11.10;99.90
13462;DHT22;6803;45.264;5.468;2022-12-29T11:02:57;11.30;99.90
13462;DHT22;6803;45.264;5.468;2022-12-29T11:05:31;11.40;99.90
13462;DHT22;6803;45.264;5.468;2022-12-29T11:10:44;11.70;99.90
13462;DHT22;6803;45.264;5.468;2022-12-29T11:13:17;11.90;99.90
13462;DHT22;6803;45.264;5.468;2022-12-29T11:15:51;11.90;99.90
13462;DHT22;6803;45.264;5.468;2022-12-29T11:18:24;12.10;99.90
13462;DHT22;6803;45.264;5.468;2022-12-29T11:20:57;12.40;99.90
13462;DHT22;6803;45.264;5.468;2022-12-29T11:23:34;12.70;99.90
13462;DHT22;6803;45.264;5.468;2022-12-29T11:26:18;13.00;99.90
13462;DHT22;6803;45.264;5.468;2022-12-29T11:29:05;13.20;99.90
13462;DHT22;6803;45.264;5.468;2022-12-29T11:31:42;13.30;99.90
13462;DHT22;6803;45.264;5.468;2022-12-29T11:34:20;13.10;99.90
13462;DHT22;6803;45.264;5.468;2022-12-29T11:36:57;13.00;99.90
13462;DHT22;6803;45.264;5.468;2022-12-29T11:39:33;12.70;99.90
13462;DHT22;6803;45.264;5.468;2022-12-29T11:42:05;13.00;99.90
13462;DHT22;6803;45.264;5.468;2022-12-29T11:44:42;13.30;99.90
13462;DHT22;6803;45.264;5.468;2022-12-29T11:47:26;13.50;99.90
13462;DHT22;6803;45.264;5.468;2022-12-29T11:50:00;13.60;99.90
13462;DHT22;6803;45.264;5.468;2022-12-29T11:52:35;13.50;99.90
13462;DHT22;6803;45.264;5.468;2022-12-29T11:55:16;13.60;99.90
13462;DHT22;6803;45.264;5.468;2022-12-29T11:57:44;13.40;99.90
13462;DHT22;6803;45.264;5.468;2022-12-29T12:00:19;13.60;99.90
13462;DHT22;6803;45.264;5.468;2022-12-29T12:06:47;13.90;99.90
13462;DHT22;6803;45.264;5.468;2022-12-29T12:09:23;13.70;99.90
13462;DHT22;6803;45.264;5.468;2022-12-29T12:11:55;13.60;99.90
13462;DHT22;6803;45.264;5.468;2022-12-29T12:17:10;14.30;99.90
13462;DHT22;6803;45.264;5.468;2022-12-29T12:19:44;14.40;99.90
13462;DHT22;6803;45.264;5.468;2022-12-29T12:22:19;14.50;99.90
13462;DHT22;6803;45.264;5.468;2022-12-29T12:24:53;14.40;99.90
13462;DHT22;6803;45.264;5.468;2022-12-29T12:27:26;14.90;99.90
13462;DHT22;6803;45.264;5.468;2022-12-29T12:30:01;14.80;99.90
13462;DHT22;6803;45.264;5.468;2022-12-29T12:32:36;14.90;99.90
13462;DHT22;6803;45.264;5.468;2022-12-29T12:37:59;14.70;99.90
13462;DHT22;6803;45.264;5.468;2022-12-29T12:40:42;14.50;99.90
13462;DHT22;6803;45.264;5.468;2022-12-29T12:43:34;14.30;99.90
13462;DHT22;6803;45.264;5.468;2022-12-29T12:46:23;14.30;99.90
13462;DHT22;6803;45.264;5.468;2022-12-29T12:49:07;14.40;99.90
13462;DHT22;6803;45.264;5.468;2022-12-29T12:51:42;14.30;99.90
13462;DHT22;6803;45.264;5.468;2022-12-29T12:54:24;14.10;99.90
13462;DHT22;6803;45.264;5.468;2022-12-29T12:57:08;13.90;99.90
13462;DHT22;6803;45.264;5.468;2022-12-29T12:59:50;14.00;99.90
13462;DHT22;6803;45.264;5.468;2022-12-29T13:02:36;13.80;99.90
13462;DHT22;6803;45.264;5.468;2022-12-29T13:05:24;13.70;99.90
13462;DHT22;6803;45.264;5.468;2022-12-29T13:08:03;13.70;99.90
13462;DHT22;6803;45.264;5.468;2022-12-29T13:10:40;13.60;99.90
13462;DHT22;6803;45.264;5.468;2022-12-29T13:16:00;13.50;99.90
13462;DHT22;6803;45.264;5.468;2022-12-29T13:21:18;13.50;99.90
13462;DHT22;6803;45.264;5.468;2022-12-29T13:23:52;13.50;99.90
13462;DHT22;6803;45.264;5.468;2022-12-29T13:26:26;13.50;99.90
13462;DHT22;6803;45.264;5.468;2022-12-29T13:29:04;13.60;99.90
13462;DHT22;6803;45.264;5.468;2022-12-29T13:31:41;13.70;99.90
13462;DHT22;6803;45.264;5.468;2022-12-29T13:34:17;13.80;99.90
13462;DHT22;6803;45.264;5.468;2022-12-29T13:36:49;13.90;99.90
13462;DHT22;6803;45.264;5.468;2022-12-29T13:42:20;14.00;99.90
13462;DHT22;6803;45.264;5.468;2022-12-29T13:44:54;13.90;99.90
13462;DHT22;6803;45.264;5.468;2022-12-29T13:50:13;13.80;99.90
13462;DHT22;6803;45.264;5.468;2022-12-29T13:52:49;13.70;99.90
13462;DHT22;6803;45.264;5.468;2022-12-29T13:55:26;13.60;99.90
13462;DHT22;6803;45.264;5.468;2022-12-29T13:58:00;13.70;99.90
13462;DHT22;6803;45.264;5.468;2022-12-29T14:00:35;13.60;99.90
13462;DHT22;6803;45.264;5.468;2022-12-29T14:03:17;13.50;99.90
13462;DHT22;6803;45.264;5.468;2022-12-29T14:06:03;13.30;99.90
13462;DHT22;6803;45.264;5.468;2022-12-29T14:08:36;13.30;99.90
13462;DHT22;6803;45.264;5.468;2022-12-29T14:11:09;13.30;99.90
13462;DHT22;6803;45.264;5.468;2022-12-29T14:13:42;13.30;99.90
13462;DHT22;6803;45.264;5.468;2022-12-29T14:16:26;13.40;99.90
13462;DHT22;6803;45.264;5.468;2022-12-29T14:19:04;13.30;99.90
13462;DHT22;6803;45.264;5.468;2022-12-29T14:21:35;13.40;99.90
13462;DHT22;6803;45.264;5.468;2022-12-29T14:24:44;13.20;99.90
13462;DHT22;6803;45.264;5.468;2022-12-29T14:27:51;13.20;99.90
13462;DHT22;6803;45.264;5.468;2022-12-29T14:30:47;13.20;99.90
13462;DHT22;6803;45.264;5.468;2022-12-29T14:33:19;13.10;99.90
13462;DHT22;6803;45.264;5.468;2022-12-29T14:35:51;13.10;99.90
13462;DHT22;6803;45.264;5.468;2022-12-29T14:38:27;13.10;99.90
13462;DHT22;6803;45.264;5.468;2022-12-29T14:41:17;12.90;99.90
13462;DHT22;6803;45.264;5.468;2022-12-29T14:44:00;13.00;99.90
13462;DHT22;6803;45.264;5.468;2022-12-29T14:49:27;12.80;99.90
13462;DHT22;6803;45.264;5.468;2022-12-29T14:52:12;12.70;99.90
13462;DHT22;6803;45.264;5.468;2022-12-29T14:54:59;12.60;99.90
13462;DHT22;6803;45.264;5.468;2022-12-29T14:57:36;12.60;99.90
13462;DHT22;6803;45.264;5.468;2022-12-29T15:00:19;12.60;99.90
13462;DHT22;6803;45.264;5.468;2022-12-29T15:02:54;12.50;99.90
13462;DHT22;6803;45.264;5.468;2022-12-29T15:05:33;12.60;99.90
13462;DHT22;6803;45.264;5.468;2022-12-29T15:08:05;12.40;99.90
13462;DHT22;6803;45.264;5.468;2022-12-29T15:10:40;12.50;99.90
13462;DHT22;6803;45.264;5.468;2022-12-29T15:13:20;12.50;99.90
13462;DHT22;6803;45.264;5.468;2022-12-29T15:15:50;12.40;99.90
13462;DHT22;6803;45.264;5.468;2022-12-29T15:18:25;12.40;99.90
13462;DHT22;6803;45.264;5.468;2022-12-29T15:20:58;12.30;99.90
13462;DHT22;6803;45.264;5.468;2022-12-29T15:23:31;12.20;99.90
13462;DHT22;6803;45.264;5.468;2022-12-29T15:26:04;12.20;99.90
13462;DHT22;6803;45.264;5.468;2022-12-29T15:31:21;12.10;99.90
13462;DHT22;6803;45.264;5.468;2022-12-29T15:34:09;11.90;99.90
13462;DHT22;6803;45.264;5.468;2022-12-29T15:36:29;11.90;99.90
13462;DHT22;6803;45.264;5.468;2022-12-29T15:39:00;11.90;99.90
13462;DHT22;6803;45.264;5.468;2022-12-29T15:41:35;11.90;99.90
13462;DHT22;6803;45.264;5.468;2022-12-29T15:44:13;11.90;99.90
13462;DHT22;6803;45.264;5.468;2022-12-29T15:46:44;11.80;99.90
13462;DHT22;6803;45.264;5.468;2022-12-29T15:49:16;11.80;99.90
13462;DHT22;6803;45.264;5.468;2022-12-29T15:51:48;11.70;99.90
13462;DHT22;6803;45.264;5.468;2022-12-29T15:54:21;11.60;99.90
13462;DHT22;6803;45.264;5.468;2022-12-29T15:56:53;11.50;99.90
13462;DHT22;6803;45.264;5.468;2022-12-29T15:59:26;11.50;99.90
13462;DHT22;6803;45.264;5.468;2022-12-29T16:01:58;11.50;99.90
13462;DHT22;6803;45.264;5.468;2022-12-29T16:04:32;11.60;99.90
13462;DHT22;6803;45.264;5.468;2022-12-29T16:07:21;11.70;99.90
13462;DHT22;6803;45.264;5.468;2022-12-29T16:09:57;11.70;99.90
13462;DHT22;6803;45.264;5.468;2022-12-29T16:15:13;11.40;99.90
13462;DHT22;6803;45.264;5.468;2022-12-29T16:20:33;11.30;99.90
13462;DHT22;6803;45.264;5.468;2022-12-29T16:23:04;11.30;99.90
13462;DHT22;6803;45.264;5.468;2022-12-29T16:28:19;11.30;99.90
13462;DHT22;6803;45.264;5.468;2022-12-29T16:30:59;11.30;99.90
13462;DHT22;6803;45.264;5.468;2022-12-29T16:33:37;11.30;99.90
13462;DHT22;6803;45.264;5.468;2022-12-29T16:36:30;11.20;99.90
13462;DHT22;6803;45.264;5.468;2022-12-29T16:39:20;11.20;99.90
13462;DHT22;6803;45.264;5.468;2022-12-29T16:41:54;11.20;99.90
13462;DHT22;6803;45.264;5.468;2022-12-29T16:44:27;11.20;99.90
13462;DHT22;6803;45.264;5.468;2022-12-29T16:49:52;11.10;99.90
13462;DHT22;6803;45.264;5.468;2022-12-29T16:52:28;11.10;99.90
13462;DHT22;6803;45.264;5.468;2022-12-29T16:55:00;11.10;99.90
13462;DHT22;6803;45.264;5.468;2022-12-29T16:57:32;11.20;99.90
13462;DHT22;6803;45.264;5.468;2022-12-29T17:00:07;11.20;99.90
13462;DHT22;6803;45.264;5.468;2022-12-29T17:02:38;11.20;99.90
13462;DHT22;6803;45.264;5.468;2022-12-29T17:05:13;11.10;99.90
13462;DHT22;6803;45.264;5.468;2022-12-29T17:07:45;11.10;99.90
13462;DHT22;6803;45.264;5.468;2022-12-29T17:10:16;11.20;99.90
13462;DHT22;6803;45.264;5.468;2022-12-29T17:15:29;11.00;99.90
13462;DHT22;6803;45.264;5.468;2022-12-29T17:18:03;11.00;99.90
13462;DHT22;6803;45.264;5.468;2022-12-29T17:20:35;10.90;99.90
13462;DHT22;6803;45.264;5.468;2022-12-29T17:23:12;10.90;99.90
13462;DHT22;6803;45.264;5.468;2022-12-29T17:25:45;10.90;99.90
13462;DHT22;6803;45.264;5.468;2022-12-29T17:28:19;10.90;99.90
13462;DHT22;6803;45.264;5.468;2022-12-29T17:30:51;10.90;99.90
13462;DHT22;6803;45.264;5.468;2022-12-29T17:33:22;10.90;99.90
13462;DHT22;6803;45.264;5.468;2022-12-29T17:35:53;10.90;99.90
13462;DHT22;6803;45.264;5.468;2022-12-29T17:41:08;11.00;99.90
13462;DHT22;6803;45.264;5.468;2022-12-29T17:43:41;10.90;99.90
13462;DHT22;6803;45.264;5.468;2022-12-29T17:46:12;11.00;99.90
13462;DHT22;6803;45.264;5.468;2022-12-29T17:48:42;10.90;99.90
13462;DHT22;6803;45.264;5.468;2022-12-29T17:51:15;10.70;99.90
13462;DHT22;6803;45.264;5.468;2022-12-29T17:53:46;10.60;99.90
13462;DHT22;6803;45.264;5.468;2022-12-29T17:56:18;10.60;99.90